In Rescue
 
Open Full Screen Window  High Contrast Mode
Wind Gusting 00 knots
05
September 19, 2019 4:58 PM EDT
Weather Information
Wind Direction
  120 °
Wind Speed
  05 kt (6 mph)
Wind Gust
  00 kt (0 mph)
Altimeter
30.10 in
Visibility
10 SM
Temperature
28° C
82° F
Dewpoint
11° C
52° F
Humidity
35%
1hr Rain Fall
00.00 in.
24hr Rain Fall
00.00 in.
Sky Condition
Clear
VFR

METAR KRMY 192058Z AUTO 12005KT 10SM CLR 28/11 A3010 RMK AO2 T02800107

FAA Disclaimer: The data displayed is for advisory purposes only and is not to be used for flight planning or operations.